Time;durP1;ratioP1;P1;durP2;ratioP2;P2;SDS_P1;SDS_P2;PMS_P1;PMS_P2;Temp;Humidity;BMP_temperature;BMP_pressure;BME280_temperature;BME280_humidity;BME280_pressure;Samples;Min_cycle;Max_cycle;Signal;HPM_P1;HPM_P2
2022/01/14 00:01:18;;;;;;;81.72;45.55;;;;;;;;;;5033976;28;20020;-81
2022/01/14 00:03:45;;;;;;;84.22;50.63;;;;;;;;;;5034020;28;20404;-82
2022/01/14 00:06:11;;;;;;;101.35;57.40;;;;;;;;;;5033243;28;20086;-82
2022/01/14 00:08:38;;;;;;;100.43;61.17;;;;;;;;;;5015595;28;20022;-80
2022/01/14 00:11:14;;;;;;;104.80;61.92;;;;;;;;;;5012626;28;20532;-81
2022/01/14 00:13:51;;;;;;;110.95;66.65;;;;;;;;;;5034494;28;20110;-80
2022/01/14 00:16:18;;;;;;;123.60;70.75;;;;;;;;;;5030064;28;20037;-80
2022/01/14 00:18:44;;;;;;;112.88;66.53;;;;;;;;;;5034848;28;20021;-81
2022/01/14 00:21:10;;;;;;;117.95;66.47;;;;;;;;;;5034746;28;20469;-81
2022/01/14 00:23:40;;;;;;;110.95;65.95;;;;;;;;;;5026790;28;20037;-81
2022/01/14 00:31:43;;;;;;;105.85;62.65;;;;;;;;;;5032946;28;20049;-82
2022/01/14 00:34:13;;;;;;;107.63;63.20;;;;;;;;;;5034355;28;20029;-81
2022/01/14 00:36:40;;;;;;;108.65;61.72;;;;;;;;;;5033496;28;20025;-81
2022/01/14 00:39:08;;;;;;;110.03;62.63;;;;;;;;;;5027773;28;20025;-81
2022/01/14 00:41:35;;;;;;;112.82;65.00;;;;;;;;;;5036555;28;20043;-79
2022/01/14 00:44:10;;;;;;;110.90;62.42;;;;;;;;;;5033078;28;20028;-80
2022/01/14 00:46:37;;;;;;;107.25;61.50;;;;;;;;;;5011407;28;20394;-82
2022/01/14 00:49:03;;;;;;;102.68;59.15;;;;;;;;;;5029994;28;20102;-82
2022/01/14 00:51:30;;;;;;;99.53;57.35;;;;;;;;;;5029648;28;20021;-79
2022/01/14 00:53:57;;;;;;;103.15;57.03;;;;;;;;;;5029500;28;20076;-80
2022/01/14 01:01:35;;;;;;;90.32;50.92;;;;;;;;;;5031501;28;20472;-83
2022/01/14 01:04:02;;;;;;;78.53;48.40;;;;;;;;;;5034755;28;20029;-82
2022/01/14 01:06:28;;;;;;;88.72;49.72;;;;;;;;;;5033245;28;20488;-83
2022/01/14 01:08:56;;;;;;;84.82;48.47;;;;;;;;;;5029555;28;20052;-84
2022/01/14 01:11:28;;;;;;;79.28;49.30;;;;;;;;;;5030156;28;20033;-83
2022/01/14 01:14:10;;;;;;;84.63;48.83;;;;;;;;;;5027038;28;20083;-81
2022/01/14 01:16:37;;;;;;;85.82;50.13;;;;;;;;;;5010254;28;20057;-81
2022/01/14 01:19:03;;;;;;;81.57;47.80;;;;;;;;;;5012281;28;20025;-80
2022/01/14 01:21:30;;;;;;;79.65;46.92;;;;;;;;;;5031313;28;20109;-81
2022/01/14 01:23:56;;;;;;;78.07;43.92;;;;;;;;;;5038110;28;20076;-80
2022/01/14 01:26:30;;;;;;;74.22;42.53;;;;;;;;;;5020639;28;20030;-81
2022/01/14 01:29:30;;;;;;;69.65;39.90;;;;;;;;;;5035122;28;20113;-80
2022/01/14 01:31:51;;;;;;;70.13;38.92;;;;;;;;;;5040550;28;20083;-81
2022/01/14 01:34:19;;;;;;;64.32;38.88;;;;;;;;;;5037065;28;20083;-81
2022/01/14 01:36:47;;;;;;;73.65;40.15;;;;;;;;;;5033927;28;20354;-80
2022/01/14 01:39:14;;;;;;;64.57;38.40;;;;;;;;;;5018445;28;20076;-82
2022/01/14 01:41:42;;;;;;;68.65;37.22;;;;;;;;;;5021123;28;20033;-79
2022/01/14 01:44:09;;;;;;;64.97;39.08;;;;;;;;;;5028225;28;20477;-80
2022/01/14 01:46:42;;;;;;;64.20;36.95;;;;;;;;;;5032096;28;20029;-81
2022/01/14 01:49:09;;;;;;;61.25;36.13;;;;;;;;;;5032029;28;20013;-83
2022/01/14 01:51:36;;;;;;;56.30;34.75;;;;;;;;;;5030076;28;20551;-81
2022/01/14 01:54:04;;;;;;;57.80;33.65;;;;;;;;;;5009970;28;20144;-82
2022/01/14 01:56:31;;;;;;;55.38;34.45;;;;;;;;;;5028967;28;20140;-84
2022/01/14 01:58:58;;;;;;;52.55;31.15;;;;;;;;;;5029514;28;20030;-81
2022/01/14 02:01:25;;;;;;;58.42;29.80;;;;;;;;;;5030000;28;20041;-81
2022/01/14 02:03:53;;;;;;;49.33;29.13;;;;;;;;;;5016566;28;20510;-82
2022/01/14 02:06:20;;;;;;;55.85;30.77;;;;;;;;;;5013736;28;20024;-81
2022/01/14 02:08:46;;;;;;;46.85;29.52;;;;;;;;;;5008788;28;20354;-82
2022/01/14 02:11:13;;;;;;;51.10;29.80;;;;;;;;;;5036533;28;20143;-83
2022/01/14 02:13:40;;;;;;;51.20;29.77;;;;;;;;;;5017689;28;20112;-78
2022/01/14 02:18:47;;;;;;;55.17;28.88;;;;;;;;;;5028267;28;20025;-81
2022/01/14 02:24:20;;;;;;;52.35;29.20;;;;;;;;;;5035127;28;20175;-82
2022/01/14 02:26:48;;;;;;;47.03;30.02;;;;;;;;;;5036579;28;20385;-81
2022/01/14 02:29:15;;;;;;;52.72;28.67;;;;;;;;;;5036893;28;20453;-82
2022/01/14 02:31:41;;;;;;;55.30;27.77;;;;;;;;;;5014736;28;20071;-81
2022/01/14 02:34:10;;;;;;;47.60;26.40;;;;;;;;;;5034086;28;20100;-80
2022/01/14 02:36:36;;;;;;;48.88;27.20;;;;;;;;;;5035778;28;20037;-80
2022/01/14 02:39:03;;;;;;;48.80;24.60;;;;;;;;;;5034830;28;20028;-80
2022/01/14 02:41:29;;;;;;;40.45;23.30;;;;;;;;;;5034624;28;20029;-79
2022/01/14 02:43:56;;;;;;;43.60;22.80;;;;;;;;;;5034074;28;20055;-79
2022/01/14 02:46:23;;;;;;;38.67;23.10;;;;;;;;;;5035807;28;20029;-83
2022/01/14 02:48:49;;;;;;;38.75;22.13;;;;;;;;;;5040686;28;20444;-82
2022/01/14 02:51:17;;;;;;;40.80;21.85;;;;;;;;;;5018799;28;20068;-81
2022/01/14 02:53:56;;;;;;;39.03;19.73;;;;;;;;;;5009075;28;20045;-80
2022/01/14 02:56:24;;;;;;;38.40;21.30;;;;;;;;;;5025127;28;20084;-81
2022/01/14 02:58:51;;;;;;;36.38;21.75;;;;;;;;;;5023038;28;20029;-80
2022/01/14 03:01:25;;;;;;;46.47;22.70;;;;;;;;;;5026525;28;20487;-82
2022/01/14 03:03:55;;;;;;;37.85;22.98;;;;;;;;;;5029216;28;20465;-80
2022/01/14 03:06:21;;;;;;;37.90;22.85;;;;;;;;;;5027735;28;20017;-81
2022/01/14 03:08:48;;;;;;;39.00;22.35;;;;;;;;;;5033579;28;20193;-81
2022/01/14 03:11:20;;;;;;;43.08;23.02;;;;;;;;;;5028631;28;20028;-80
2022/01/14 03:13:47;;;;;;;42.33;24.08;;;;;;;;;;5023696;28;20061;-82
2022/01/14 03:16:18;;;;;;;41.63;23.48;;;;;;;;;;5024654;28;20055;-80
2022/01/14 03:18:48;;;;;;;37.25;23.55;;;;;;;;;;5032583;28;20021;-80
2022/01/14 03:21:25;;;;;;;40.00;23.50;;;;;;;;;;5032957;28;20043;-81
2022/01/14 03:24:02;;;;;;;44.50;23.58;;;;;;;;;;5029710;28;20049;-80
2022/01/14 03:26:28;;;;;;;46.33;23.58;;;;;;;;;;5012893;28;20095;-80
2022/01/14 03:28:55;;;;;;;44.85;22.88;;;;;;;;;;5030178;28;20037;-81
2022/01/14 03:31:21;;;;;;;38.67;23.15;;;;;;;;;;5031960;28;20056;-79
2022/01/14 03:33:51;;;;;;;42.88;23.77;;;;;;;;;;5029428;28;20029;-80
2022/01/14 03:36:17;;;;;;;50.25;25.60;;;;;;;;;;5030310;28;20044;-80
2022/01/14 03:38:43;;;;;;;49.25;23.50;;;;;;;;;;5013038;28;20033;-83
2022/01/14 03:41:10;;;;;;;47.10;24.38;;;;;;;;;;5030952;28;20049;-81
2022/01/14 03:43:38;;;;;;;45.33;24.25;;;;;;;;;;5012873;28;20044;-80
2022/01/14 03:46:04;;;;;;;44.65;23.95;;;;;;;;;;5029218;28;20057;-82
2022/01/14 03:48:31;;;;;;;47.47;25.08;;;;;;;;;;5027569;28;20043;-80
2022/01/14 03:50:57;;;;;;;45.25;22.95;;;;;;;;;;5010886;28;20060;-80
2022/01/14 03:53:23;;;;;;;53.97;26.85;;;;;;;;;;5031876;28;20368;-85
2022/01/14 03:55:50;;;;;;;64.05;28.90;;;;;;;;;;5034502;28;20029;-79
2022/01/14 03:58:16;;;;;;;52.10;27.52;;;;;;;;;;5028534;28;20026;-83
2022/01/14 04:00:43;;;;;;;66.00;26.38;;;;;;;;;;5011332;28;20029;-82
2022/01/14 04:03:09;;;;;;;61.58;24.88;;;;;;;;;;5028199;28;20104;-80
2022/01/14 04:05:35;;;;;;;48.80;22.70;;;;;;;;;;5022591;28;20071;-81
2022/01/14 04:08:02;;;;;;;64.43;25.88;;;;;;;;;;5009375;28;20440;-82
2022/01/14 04:10:29;;;;;;;72.43;27.38;;;;;;;;;;5028046;28;20037;-83
2022/01/14 04:13:12;;;;;;;65.43;26.23;;;;;;;;;;5010109;28;20033;-80
2022/01/14 04:15:43;;;;;;;59.22;27.00;;;;;;;;;;5007705;28;20076;-82
2022/01/14 04:18:15;;;;;;;51.88;27.30;;;;;;;;;;5011737;28;20052;-81
2022/01/14 04:20:42;;;;;;;62.90;28.35;;;;;;;;;;5025828;28;20033;-82
2022/01/14 04:23:11;;;;;;;77.75;34.42;;;;;;;;;;5027374;28;20171;-83
2022/01/14 04:25:38;;;;;;;76.88;34.55;;;;;;;;;;5008248;28;20127;-82
2022/01/14 04:28:05;;;;;;;75.18;34.33;;;;;;;;;;5012202;28;20120;-81
2022/01/14 04:30:34;;;;;;;68.50;32.78;;;;;;;;;;5029021;28;20044;-82
2022/01/14 04:33:02;;;;;;;56.65;31.77;;;;;;;;;;5013344;28;20051;-82
2022/01/14 04:35:29;;;;;;;79.93;36.55;;;;;;;;;;5022973;28;20037;-81
2022/01/14 04:37:55;;;;;;;76.40;33.30;;;;;;;;;;5026822;28;20087;-83
2022/01/14 04:40:21;;;;;;;71.30;31.42;;;;;;;;;;5024668;28;20029;-84
2022/01/14 04:42:48;;;;;;;71.28;31.52;;;;;;;;;;5008148;28;20033;-84
2022/01/14 04:45:29;;;;;;;52.85;29.20;;;;;;;;;;5031834;28;20038;-81
2022/01/14 04:47:58;;;;;;;55.85;29.42;;;;;;;;;;5027792;28;20083;-82
2022/01/14 04:50:25;;;;;;;69.80;30.60;;;;;;;;;;5029194;28;20029;-81
2022/01/14 04:52:52;;;;;;;57.97;28.95;;;;;;;;;;5028434;28;20041;-81
2022/01/14 04:55:19;;;;;;;50.03;24.83;;;;;;;;;;5027097;28;20021;-81
2022/01/14 04:57:45;;;;;;;53.70;24.35;;;;;;;;;;5030516;28;20034;-83
2022/01/14 05:00:16;;;;;;;41.58;19.92;;;;;;;;;;5029956;28;20034;-81
2022/01/14 05:02:42;;;;;;;42.22;19.42;;;;;;;;;;5010789;28;20037;-81
2022/01/14 05:05:10;;;;;;;48.50;21.75;;;;;;;;;;5024735;28;20041;-83
2022/01/14 05:07:37;;;;;;;49.72;21.70;;;;;;;;;;5027789;28;20938;-81
2022/01/14 05:12:32;;;;;;;46.03;21.52;;;;;;;;;;5026430;28;20048;-81
2022/01/14 05:14:58;;;;;;;38.03;21.58;;;;;;;;;;5028356;28;20026;-81
2022/01/14 05:17:24;;;;;;;45.05;21.73;;;;;;;;;;5028650;28;20117;-82
2022/01/14 05:19:51;;;;;;;43.50;22.13;;;;;;;;;;5008294;28;20044;-84
2022/01/14 05:22:17;;;;;;;41.30;21.50;;;;;;;;;;5029769;28;20136;-81
2022/01/14 05:24:44;;;;;;;45.75;23.52;;;;;;;;;;5025629;28;20072;-82
2022/01/14 05:27:11;;;;;;;55.08;24.10;;;;;;;;;;5023624;28;20029;-80
2022/01/14 05:29:37;;;;;;;49.63;22.38;;;;;;;;;;5007033;28;20406;-80
2022/01/14 05:32:05;;;;;;;44.65;21.33;;;;;;;;;;5026708;28;20022;-83
2022/01/14 05:34:35;;;;;;;56.40;22.90;;;;;;;;;;5009934;28;20431;-81
2022/01/14 05:37:03;;;;;;;40.13;21.65;;;;;;;;;;5011923;28;20027;-82
2022/01/14 05:39:29;;;;;;;48.50;24.58;;;;;;;;;;5023714;28;20017;-82
2022/01/14 05:41:56;;;;;;;46.97;22.27;;;;;;;;;;5004629;28;20033;-83
2022/01/14 05:44:26;;;;;;;43.63;22.10;;;;;;;;;;5019253;28;20033;-82
2022/01/14 05:46:53;;;;;;;35.30;19.48;;;;;;;;;;5018214;28;20090;-82
2022/01/14 05:49:20;;;;;;;30.55;18.63;;;;;;;;;;5024331;28;20057;-83
2022/01/14 05:51:46;;;;;;;36.45;18.50;;;;;;;;;;5004314;28;20042;-84
2022/01/14 05:54:13;;;;;;;39.90;20.92;;;;;;;;;;5030517;28;20022;-84
2022/01/14 05:56:40;;;;;;;31.85;18.75;;;;;;;;;;5029428;28;20460;-84
2022/01/14 05:59:16;;;;;;;38.80;18.08;;;;;;;;;;5025333;28;20041;-84
2022/01/14 06:01:43;;;;;;;37.20;19.55;;;;;;;;;;5026741;28;20423;-82
2022/01/14 06:04:09;;;;;;;37.50;18.52;;;;;;;;;;5009062;28;20025;-84
2022/01/14 06:06:36;;;;;;;35.65;17.42;;;;;;;;;;5025449;28;20542;-82
2022/01/14 06:09:03;;;;;;;36.33;19.40;;;;;;;;;;5025863;28;20396;-83
2022/01/14 06:11:30;;;;;;;36.38;20.13;;;;;;;;;;5022492;28;20029;-81
2022/01/14 06:13:57;;;;;;;43.70;19.77;;;;;;;;;;5008461;28;20057;-82
2022/01/14 06:16:27;;;;;;;30.10;18.15;;;;;;;;;;5030132;28;20029;-81
2022/01/14 06:18:53;;;;;;;36.65;20.13;;;;;;;;;;5027974;28;20083;-81
2022/01/14 06:21:19;;;;;;;34.58;20.38;;;;;;;;;;5026170;28;20426;-80
2022/01/14 06:23:46;;;;;;;37.75;22.08;;;;;;;;;;5012417;28;20156;-81
2022/01/14 06:26:12;;;;;;;39.92;20.70;;;;;;;;;;5022610;28;20033;-82
2022/01/14 06:28:39;;;;;;;34.40;21.77;;;;;;;;;;5028598;28;20106;-81
2022/01/14 06:31:05;;;;;;;46.95;25.33;;;;;;;;;;5010709;28;20036;-82
2022/01/14 06:33:31;;;;;;;43.20;24.40;;;;;;;;;;5029102;28;20029;-82
2022/01/14 06:35:58;;;;;;;37.38;23.20;;;;;;;;;;5010358;28;20380;-84
2022/01/14 06:38:27;;;;;;;38.45;25.38;;;;;;;;;;5033758;28;20518;-81
2022/01/14 06:40:53;;;;;;;42.20;25.83;;;;;;;;;;5013085;28;20114;-82
2022/01/14 06:43:20;;;;;;;38.08;23.98;;;;;;;;;;5023711;28;20026;-80
2022/01/14 06:45:48;;;;;;;31.92;21.50;;;;;;;;;;5031374;28;20055;-82
2022/01/14 06:48:15;;;;;;;34.10;20.70;;;;;;;;;;5009720;28;20152;-81
2022/01/14 06:50:41;;;;;;;31.23;20.85;;;;;;;;;;5028796;28;20026;-85
2022/01/14 06:53:07;;;;;;;29.08;18.42;;;;;;;;;;5012527;28;20116;-83
2022/01/14 06:55:34;;;;;;;29.02;17.52;;;;;;;;;;5006495;28;20429;-81
2022/01/14 06:58:00;;;;;;;37.10;17.13;;;;;;;;;;5029595;28;20025;-80
2022/01/14 07:00:28;;;;;;;33.22;17.40;;;;;;;;;;5027479;28;20160;-82
2022/01/14 07:02:54;;;;;;;23.77;16.48;;;;;;;;;;5027054;28;20602;-82
2022/01/14 07:05:21;;;;;;;30.42;17.80;;;;;;;;;;5026038;28;20182;-84
2022/01/14 07:07:47;;;;;;;33.80;19.10;;;;;;;;;;5029302;28;20026;-84
2022/01/14 07:10:14;;;;;;;30.70;18.05;;;;;;;;;;5008761;28;20038;-82
2022/01/14 07:12:41;;;;;;;29.48;17.95;;;;;;;;;;5006950;28;20041;-83
2022/01/14 07:15:10;;;;;;;28.27;18.40;;;;;;;;;;5023018;28;20107;-85
2022/01/14 07:17:37;;;;;;;28.92;17.75;;;;;;;;;;5025453;28;20030;-85
2022/01/14 07:20:07;;;;;;;33.83;19.85;;;;;;;;;;5007649;28;20018;-82
2022/01/14 07:22:34;;;;;;;33.17;18.58;;;;;;;;;;5002852;28;20057;-82
2022/01/14 07:25:03;;;;;;;30.42;17.38;;;;;;;;;;5006811;28;20377;-83
2022/01/14 07:27:29;;;;;;;29.13;16.83;;;;;;;;;;5026737;28;20033;-82
2022/01/14 07:29:56;;;;;;;28.17;16.88;;;;;;;;;;5025011;28;20036;-83
2022/01/14 07:32:23;;;;;;;32.50;17.77;;;;;;;;;;5006992;28;20076;-83
2022/01/14 07:34:49;;;;;;;26.88;16.80;;;;;;;;;;5028168;28;20030;-82
2022/01/14 07:37:16;;;;;;;30.15;18.05;;;;;;;;;;5011824;28;20029;-83
2022/01/14 07:39:42;;;;;;;27.05;15.13;;;;;;;;;;5014374;28;20553;-84
2022/01/14 07:42:09;;;;;;;20.23;13.20;;;;;;;;;;5006756;28;20025;-82
2022/01/14 07:44:35;;;;;;;25.58;14.73;;;;;;;;;;5029054;28;20045;-82
2022/01/14 07:47:02;;;;;;;23.45;14.20;;;;;;;;;;5029247;28;20022;-83
2022/01/14 07:49:28;;;;;;;21.27;12.15;;;;;;;;;;4991938;28;20060;-84
2022/01/14 07:51:55;;;;;;;18.80;11.07;;;;;;;;;;5023498;28;20025;-83
2022/01/14 07:54:21;;;;;;;17.50;10.70;;;;;;;;;;5024150;28;20044;-81
2022/01/14 07:56:52;;;;;;;19.58;10.45;;;;;;;;;;5008767;28;20392;-83
2022/01/14 07:59:23;;;;;;;16.27;12.18;;;;;;;;;;5010414;28;20120;-82
2022/01/14 08:01:55;;;;;;;13.75;8.65;;;;;;;;;;5026748;28;20369;-84
2022/01/14 08:04:22;;;;;;;17.52;9.48;;;;;;;;;;5009800;28;20022;-84
2022/01/14 08:06:51;;;;;;;20.73;9.73;;;;;;;;;;5011877;28;20509;-83
2022/01/14 08:09:18;;;;;;;29.05;12.00;;;;;;;;;;5004582;28;21475;-83
2022/01/14 08:11:45;;;;;;;21.52;11.10;;;;;;;;;;5007560;28;20017;-83
2022/01/14 08:14:12;;;;;;;18.95;10.38;;;;;;;;;;5009610;28;20373;-83
2022/01/14 08:16:39;;;;;;;20.98;9.05;;;;;;;;;;5024942;28;20663;-83
2022/01/14 08:19:05;;;;;;;18.10;8.40;;;;;;;;;;5005618;28;20034;-82
2022/01/14 08:21:33;;;;;;;16.20;9.05;;;;;;;;;;5021635;28;20460;-82
2022/01/14 08:23:59;;;;;;;23.63;10.68;;;;;;;;;;5007931;28;20018;-82
2022/01/14 08:26:26;;;;;;;18.23;9.93;;;;;;;;;;5005891;28;20087;-82
2022/01/14 08:28:55;;;;;;;19.25;10.90;;;;;;;;;;5005056;28;20045;-82
2022/01/14 08:31:22;;;;;;;13.95;8.60;;;;;;;;;;4982168;28;20026;-81
2022/01/14 08:33:48;;;;;;;14.05;8.48;;;;;;;;;;4988149;28;20362;-84
2022/01/14 08:36:15;;;;;;;22.10;9.90;;;;;;;;;;4987382;28;20448;-83
2022/01/14 08:38:41;;;;;;;19.70;9.45;;;;;;;;;;5007840;28;20018;-83
2022/01/14 08:41:08;;;;;;;17.13;9.80;;;;;;;;;;5008049;28;20112;-82
2022/01/14 08:43:34;;;;;;;15.68;8.15;;;;;;;;;;4989991;28;20073;-83
2022/01/14 08:46:03;;;;;;;15.20;8.88;;;;;;;;;;4989423;28;20081;-84
2022/01/14 08:48:33;;;;;;;21.30;10.50;;;;;;;;;;4987579;28;20042;-86
2022/01/14 08:51:02;;;;;;;21.90;10.98;;;;;;;;;;5007185;28;20108;-84
2022/01/14 08:53:29;;;;;;;38.90;13.60;;;;;;;;;;5004385;28;20041;-84
2022/01/14 08:55:56;;;;;;;28.33;11.60;;;;;;;;;;5007130;28;20029;-84
2022/01/14 08:58:22;;;;;;;17.25;9.35;;;;;;;;;;4989653;28;20034;-83
2022/01/14 09:00:49;;;;;;;14.10;8.40;;;;;;;;;;5008748;28;20022;-83
2022/01/14 09:03:16;;;;;;;18.98;9.13;;;;;;;;;;5012765;28;20373;-84
2022/01/14 09:05:51;;;;;;;13.93;9.00;;;;;;;;;;4992738;28;20041;-80
2022/01/14 09:08:27;;;;;;;;;;;;;;;;;;;;;
2022/01/14 09:10:55;;;;;;;16.80;9.23;;;;;;;;;;5007309;28;20037;-84
2022/01/14 09:13:22;;;;;;;15.45;9.65;;;;;;;;;;5000472;28;20135;-83
2022/01/14 09:15:48;;;;;;;14.15;8.70;;;;;;;;;;4999534;28;20118;-85
2022/01/14 09:18:14;;;;;;;13.63;8.77;;;;;;;;;;5004252;28;20022;-83
2022/01/14 09:20:41;;;;;;;17.00;9.15;;;;;;;;;;4984902;28;20088;-85
2022/01/14 09:23:12;;;;;;;16.20;9.63;;;;;;;;;;4996994;28;20081;-83
2022/01/14 09:25:39;;;;;;;16.17;9.40;;;;;;;;;;5002390;28;20829;-85
2022/01/14 09:28:05;;;;;;;16.58;8.88;;;;;;;;;;5006320;28;20037;-85
2022/01/14 09:30:32;;;;;;;15.73;9.65;;;;;;;;;;5023038;28;20041;-83
2022/01/14 09:32:58;;;;;;;16.05;8.65;;;;;;;;;;4999915;28;20033;-85
2022/01/14 09:35:24;;;;;;;14.88;9.05;;;;;;;;;;5005160;28;20018;-84
2022/01/14 09:37:51;;;;;;;15.77;8.80;;;;;;;;;;5023044;28;20103;-82
2022/01/14 09:40:18;;;;;;;16.05;8.93;;;;;;;;;;5024375;28;20112;-83
2022/01/14 09:42:51;;;;;;;18.00;9.80;;;;;;;;;;5024518;28;20464;-84
2022/01/14 09:45:18;;;;;;;16.00;9.05;;;;;;;;;;5006786;28;20448;-86
2022/01/14 09:47:49;;;;;;;17.67;8.88;;;;;;;;;;5026716;28;20048;-82
2022/01/14 09:50:15;;;;;;;16.33;9.48;;;;;;;;;;5011325;28;20056;-85
2022/01/14 09:52:42;;;;;;;13.73;8.55;;;;;;;;;;5027012;28;20106;-83
2022/01/14 09:55:08;;;;;;;14.85;8.52;;;;;;;;;;5027068;28;20022;-83
2022/01/14 09:57:35;;;;;;;16.65;9.45;;;;;;;;;;5027834;28;20452;-84
2022/01/14 10:00:02;;;;;;;16.55;9.75;;;;;;;;;;5023920;28;21064;-84
2022/01/14 10:02:30;;;;;;;18.17;9.27;;;;;;;;;;5007953;28;20029;-85
2022/01/14 10:04:57;;;;;;;18.73;9.82;;;;;;;;;;5020995;28;20033;-85
2022/01/14 10:07:23;;;;;;;18.40;9.57;;;;;;;;;;5025642;28;20037;-84
2022/01/14 10:09:56;;;;;;;12.68;9.05;;;;;;;;;;5009908;28;20021;-85
2022/01/14 10:12:23;;;;;;;14.52;9.73;;;;;;;;;;5000394;28;20055;-84
2022/01/14 10:15:06;;;;;;;14.13;10.13;;;;;;;;;;5020489;28;20029;-84
2022/01/14 10:17:38;;;;;;;21.10;10.93;;;;;;;;;;5013085;28;20021;-87
2022/01/14 10:20:08;;;;;;;17.27;9.80;;;;;;;;;;5018776;28;20061;-87
2022/01/14 10:22:39;;;;;;;17.60;9.65;;;;;;;;;;5034325;28;20056;-84
2022/01/14 10:25:17;;;;;;;15.13;9.10;;;;;;;;;;5016978;28;20440;-86
2022/01/14 10:27:45;;;;;;;14.40;8.95;;;;;;;;;;5012809;28;20025;-84
2022/01/14 10:30:13;;;;;;;16.80;9.85;;;;;;;;;;5012598;28;20243;-83
2022/01/14 10:32:40;;;;;;;17.70;10.18;;;;;;;;;;5029310;28;20495;-83
2022/01/14 10:35:17;;;;;;;18.50;10.90;;;;;;;;;;5012635;28;20540;-82
2022/01/14 10:37:44;;;;;;;19.80;11.05;;;;;;;;;;5031125;28;20097;-85
2022/01/14 10:40:29;;;;;;;21.38;11.77;;;;;;;;;;5014163;28;20017;-85
2022/01/14 10:43:03;;;;;;;21.35;11.90;;;;;;;;;;5027491;28;20026;-85
2022/01/14 10:45:30;;;;;;;22.98;13.48;;;;;;;;;;5030347;28;20573;-85
2022/01/14 10:47:56;;;;;;;28.75;14.00;;;;;;;;;;5023275;28;20037;-84
2022/01/14 10:50:31;;;;;;;25.15;14.10;;;;;;;;;;5010429;28;20052;-83
2022/01/14 10:53:08;;;;;;;26.10;14.98;;;;;;;;;;5033026;28;20052;-85
2022/01/14 10:55:35;;;;;;;34.33;13.57;;;;;;;;;;5008333;28;20029;-83
2022/01/14 10:58:03;;;;;;;27.73;15.38;;;;;;;;;;5008454;28;20681;-83
2022/01/14 11:00:37;;;;;;;32.40;16.58;;;;;;;;;;5006764;28;20389;-82
2022/01/14 11:03:04;;;;;;;30.27;16.00;;;;;;;;;;5033704;28;20056;-83
2022/01/14 11:05:31;;;;;;;33.80;18.55;;;;;;;;;;5019794;28;20057;-84
2022/01/14 11:07:57;;;;;;;33.55;18.63;;;;;;;;;;5031772;28;20076;-84
2022/01/14 11:10:25;;;;;;;36.53;18.85;;;;;;;;;;5003709;28;20096;-83
2022/01/14 11:12:52;;;;;;;37.03;18.60;;;;;;;;;;5024272;28;20508;-82
2022/01/14 11:15:19;;;;;;;32.25;18.42;;;;;;;;;;5011323;28;20022;-84
2022/01/14 11:17:49;;;;;;;36.38;17.95;;;;;;;;;;5008610;28;20471;-82
2022/01/14 11:20:22;;;;;;;39.00;20.30;;;;;;;;;;5030175;28;20028;-82
2022/01/14 11:25:37;;;;;;;40.92;22.75;;;;;;;;;;5024045;28;20099;-85
2022/01/14 11:28:10;;;;;;;46.90;23.25;;;;;;;;;;5024691;28;20021;-84
2022/01/14 11:30:38;;;;;;;56.00;30.08;;;;;;;;;;5011161;28;20025;-84
2022/01/14 11:33:05;;;;;;;64.93;34.55;;;;;;;;;;5030162;28;20033;-84
2022/01/14 11:35:32;;;;;;;66.65;36.72;;;;;;;;;;5033571;28;20479;-83
2022/01/14 11:38:00;;;;;;;70.97;40.10;;;;;;;;;;5012302;28;20030;-84
2022/01/14 11:40:26;;;;;;;67.60;39.45;;;;;;;;;;5011339;28;20032;-86
2022/01/14 11:43:03;;;;;;;83.00;44.15;;;;;;;;;;5027880;28;20029;-85
2022/01/14 11:45:47;;;;;;;84.80;46.78;;;;;;;;;;5032136;28;20477;-86
2022/01/14 11:48:53;;;;;;;83.25;45.95;;;;;;;;;;5030350;28;20511;-83
2022/01/14 11:51:19;;;;;;;85.20;44.50;;;;;;;;;;4924665;29;20127;-86
2022/01/14 11:53:52;;;;;;;87.93;47.45;;;;;;;;;;5015293;28;20049;-83
2022/01/14 11:56:31;;;;;;;94.35;48.08;;;;;;;;;;5012054;28;20524;-83
2022/01/14 11:59:16;;;;;;;117.97;55.67;;;;;;;;;;5022655;28;20030;-85
2022/01/14 12:01:42;;;;;;;109.28;50.38;;;;;;;;;;5001277;28;20030;-86
2022/01/14 12:04:09;;;;;;;99.72;44.65;;;;;;;;;;5007904;28;20029;-87
2022/01/14 12:06:50;;;;;;;101.65;45.22;;;;;;;;;;5027749;28;20057;-85
2022/01/14 12:09:23;;;;;;;91.93;40.25;;;;;;;;;;5020191;28;20025;-83
2022/01/14 12:12:08;;;;;;;95.47;41.60;;;;;;;;;;5030389;28;20041;-84
2022/01/14 12:14:45;;;;;;;89.18;40.95;;;;;;;;;;5027192;28;20048;-83
2022/01/14 12:17:13;;;;;;;94.68;44.33;;;;;;;;;;5012973;28;20033;-84
2022/01/14 12:19:43;;;;;;;82.05;41.17;;;;;;;;;;5010619;28;20033;-86
2022/01/14 12:22:10;;;;;;;90.72;42.45;;;;;;;;;;5006025;28;20112;-84
2022/01/14 12:24:36;;;;;;;98.32;39.55;;;;;;;;;;5018931;28;20025;-84
2022/01/14 12:27:12;;;;;;;92.10;39.30;;;;;;;;;;5003429;28;20030;-85
2022/01/14 12:29:39;;;;;;;90.13;38.00;;;;;;;;;;5026845;28;20064;-84
2022/01/14 12:32:07;;;;;;;71.55;35.83;;;;;;;;;;5022986;28;20026;-85
2022/01/14 12:34:35;;;;;;;68.22;33.42;;;;;;;;;;5025667;28;20022;-84
2022/01/14 12:37:04;;;;;;;66.78;34.72;;;;;;;;;;5021556;28;20036;-84
2022/01/14 12:39:30;;;;;;;76.90;38.78;;;;;;;;;;5020313;28;20026;-85
2022/01/14 12:41:58;;;;;;;74.40;40.25;;;;;;;;;;5023221;28;20525;-85
2022/01/14 12:44:25;;;;;;;83.47;40.45;;;;;;;;;;5026521;28;20021;-84
2022/01/14 12:47:02;;;;;;;83.72;43.40;;;;;;;;;;5022679;28;20017;-85
2022/01/14 12:49:34;;;;;;;89.40;40.47;;;;;;;;;;5025551;28;20144;-84
2022/01/14 12:52:00;;;;;;;74.47;38.55;;;;;;;;;;5024278;28;20544;-84
2022/01/14 12:54:37;;;;;;;81.20;39.28;;;;;;;;;;5011048;28;20496;-84
2022/01/14 12:57:04;;;;;;;71.50;36.03;;;;;;;;;;5027782;28;20029;-85
2022/01/14 12:59:41;;;;;;;75.50;35.72;;;;;;;;;;5027665;28;20021;-84
2022/01/14 13:02:08;;;;;;;66.03;35.80;;;;;;;;;;5026883;28;20017;-84
2022/01/14 13:04:35;;;;;;;72.53;35.53;;;;;;;;;;5007814;28;20524;-86
2022/01/14 13:07:03;;;;;;;81.32;38.00;;;;;;;;;;5009213;28;20026;-83
2022/01/14 13:09:31;;;;;;;63.53;34.95;;;;;;;;;;5029721;28;20044;-86
2022/01/14 13:12:35;;;;;;;72.47;38.55;;;;;;;;;;5011234;28;20017;-86
2022/01/14 13:15:04;;;;;;;69.63;35.08;;;;;;;;;;5010133;28;20042;-83
2022/01/14 13:17:35;;;;;;;79.68;38.38;;;;;;;;;;5028666;28;20044;-87
2022/01/14 13:20:11;;;;;;;75.40;37.15;;;;;;;;;;5006271;28;20049;-80
2022/01/14 13:22:38;;;;;;;77.45;37.65;;;;;;;;;;5039515;28;20059;-83
2022/01/14 13:25:07;;;;;;;64.07;35.22;;;;;;;;;;5019799;28;20033;-87
2022/01/14 13:27:38;;;;;;;77.35;38.25;;;;;;;;;;5028658;28;20029;-84
2022/01/14 13:33:38;;;;;;;95.28;41.05;;;;;;;;;;5005066;28;20040;-86
2022/01/14 13:36:05;;;;;;;85.47;42.22;;;;;;;;;;4992592;28;20400;-83
2022/01/14 13:38:33;;;;;;;101.57;46.42;;;;;;;;;;5009640;28;20029;-83
2022/01/14 13:40:59;;;;;;;96.15;50.33;;;;;;;;;;5009269;28;20133;-84
2022/01/14 13:43:35;;;;;;;94.18;46.25;;;;;;;;;;4993234;28;20038;-84
2022/01/14 13:46:07;;;;;;;95.30;48.15;;;;;;;;;;5010910;28;20044;-88
2022/01/14 13:48:39;;;;;;;94.68;45.20;;;;;;;;;;5010532;28;20366;-85
2022/01/14 13:51:07;;;;;;;99.93;46.17;;;;;;;;;;5006304;28;20053;-83
2022/01/14 13:53:36;;;;;;;93.32;47.78;;;;;;;;;;5004042;28;20032;-84
2022/01/14 13:56:06;;;;;;;82.22;45.63;;;;;;;;;;4995345;28;20034;-85
2022/01/14 13:58:33;;;;;;;104.15;50.20;;;;;;;;;;5016636;28;20085;-83
2022/01/14 14:01:03;;;;;;;92.10;46.83;;;;;;;;;;5019533;28;20101;-83
2022/01/14 14:03:44;;;;;;;93.80;47.17;;;;;;;;;;5010787;28;20156;-86
2022/01/14 14:06:16;;;;;;;124.75;71.93;;;;;;;;;;5008353;28;20037;-84
2022/01/14 14:08:48;;;;;;;100.70;49.05;;;;;;;;;;5010714;28;20041;-87
2022/01/14 14:16:57;;;;;;;79.82;45.22;;;;;;;;;;5008285;28;20037;-84
2022/01/14 14:19:27;;;;;;;95.82;46.50;;;;;;;;;;5006948;28;20547;-83
2022/01/14 14:22:14;;;;;;;87.70;46.13;;;;;;;;;;4987116;28;20042;-82
2022/01/14 14:24:41;;;;;;;78.95;45.00;;;;;;;;;;4990032;28;20462;-84
2022/01/14 14:27:09;;;;;;;90.57;44.20;;;;;;;;;;4994615;28;20027;-83
2022/01/14 14:29:35;;;;;;;66.80;39.63;;;;;;;;;;4991492;28;20437;-84
2022/01/14 14:32:15;;;;;;;75.57;39.53;;;;;;;;;;4990724;28;20057;-85
2022/01/14 14:34:41;;;;;;;92.05;48.92;;;;;;;;;;4988066;28;20113;-86
2022/01/14 14:37:07;;;;;;;93.75;49.22;;;;;;;;;;4971291;28;20026;-86
2022/01/14 14:39:34;;;;;;;90.22;47.08;;;;;;;;;;4986344;28;20050;-86
2022/01/14 14:42:00;;;;;;;101.07;51.58;;;;;;;;;;4989035;28;20026;-81
2022/01/14 14:44:29;;;;;;;85.35;45.78;;;;;;;;;;4990532;28;20092;-83
2022/01/14 14:46:55;;;;;;;93.78;47.22;;;;;;;;;;4970334;28;20357;-87
2022/01/14 14:49:22;;;;;;;80.88;47.55;;;;;;;;;;4985365;28;20027;-86
2022/01/14 14:51:49;;;;;;;69.40;34.08;;;;;;;;;;4987889;28;20031;-83
2022/01/14 14:54:15;;;;;;;70.60;37.92;;;;;;;;;;4987815;28;20045;-82
2022/01/14 14:56:42;;;;;;;86.00;47.20;;;;;;;;;;4989517;28;20059;-85
2022/01/14 14:59:08;;;;;;;83.45;43.97;;;;;;;;;;4985993;28;20042;-84